sensor_id;sensor_type;location;lat;lon;timestamp;pressure;altitude;pressure_sealevel;temperature
71897;BMP280;59767;51.344;12.362;2022-12-18T00:00:03;157194.03;;;-5.47
71897;BMP280;59767;51.344;12.362;2022-12-18T00:03:08;157203.09;;;-5.43
71897;BMP280;59767;51.344;12.362;2022-12-18T00:06:13;157203.09;;;-5.43
71897;BMP280;59767;51.344;12.362;2022-12-18T00:09:18;157196.59;;;-5.46
71897;BMP280;59767;51.344;12.362;2022-12-18T00:12:22;157207.00;;;-5.42
71897;BMP280;59767;51.344;12.362;2022-12-18T00:15:26;157239.41;;;-5.29
71897;BMP280;59767;51.344;12.362;2022-12-18T00:18:31;157220.00;;;-5.37
71897;BMP280;59767;51.344;12.362;2022-12-18T00:21:35;157199.22;;;-5.45
71897;BMP280;59767;51.344;12.362;2022-12-18T00:24:40;157199.22;;;-5.45
71897;BMP280;59767;51.344;12.362;2022-12-18T00:27:44;157217.31;;;-5.38
71897;BMP280;59767;51.344;12.362;2022-12-18T00:30:48;157248.50;;;-5.26
71897;BMP280;59767;51.344;12.362;2022-12-18T00:33:55;157230.34;;;-5.33
71897;BMP280;59767;51.344;12.362;2022-12-18T00:37:00;157227.75;;;-5.34
71897;BMP280;59767;51.344;12.362;2022-12-18T00:40:05;157244.59;;;-5.27
71897;BMP280;59767;51.344;12.362;2022-12-18T00:43:09;157247.19;;;-5.26
71897;BMP280;59767;51.344;12.362;2022-12-18T00:46:13;157241.97;;;-5.28
71897;BMP280;59767;51.344;12.362;2022-12-18T00:49:19;157216.06;;;-5.38
71897;BMP280;59767;51.344;12.362;2022-12-18T00:52:23;157209.56;;;-5.41
71897;BMP280;59767;51.344;12.362;2022-12-18T00:55:26;157171.94;;;-5.55
71897;BMP280;59767;51.344;12.362;2022-12-18T00:58:31;157168.06;;;-5.57
71897;BMP280;59767;51.344;12.362;2022-12-18T01:01:35;157170.69;;;-5.56
71897;BMP280;59767;51.344;12.362;2022-12-18T01:04:39;157175.81;;;-5.54
71897;BMP280;59767;51.344;12.362;2022-12-18T01:07:43;157173.25;;;-5.55
71897;BMP280;59767;51.344;12.362;2022-12-18T01:10:47;157217.31;;;-5.38
71897;BMP280;59767;51.344;12.362;2022-12-18T01:13:53;157212.19;;;-5.40
71897;BMP280;59767;51.344;12.362;2022-12-18T01:16:57;157223.88;;;-5.35
71897;BMP280;59767;51.344;12.362;2022-12-18T01:20:02;157223.88;;;-5.35
71897;BMP280;59767;51.344;12.362;2022-12-18T01:23:06;157222.56;;;-5.36
71897;BMP280;59767;51.344;12.362;2022-12-18T01:26:15;157188.84;;;-5.49
71897;BMP280;59767;51.344;12.362;2022-12-18T01:29:19;157207.00;;;-5.42
71897;BMP280;59767;51.344;12.362;2022-12-18T01:32:24;157221.25;;;-5.36
71897;BMP280;59767;51.344;12.362;2022-12-18T01:35:28;157218.63;;;-5.37
71897;BMP280;59767;51.344;12.362;2022-12-18T01:38:33;157234.22;;;-5.31
71897;BMP280;59767;51.344;12.362;2022-12-18T01:41:37;157207.00;;;-5.42
71897;BMP280;59767;51.344;12.362;2022-12-18T01:48:13;157179.72;;;-5.52
71897;BMP280;59767;51.344;12.362;2022-12-18T01:51:17;157171.94;;;-5.55
71897;BMP280;59767;51.344;12.362;2022-12-18T01:54:21;157173.25;;;-5.55
71897;BMP280;59767;51.344;12.362;2022-12-18T01:57:27;157162.91;;;-5.59
71897;BMP280;59767;51.344;12.362;2022-12-18T02:00:32;157147.34;;;-5.65
71897;BMP280;59767;51.344;12.362;2022-12-18T02:03:36;157147.34;;;-5.65
71897;BMP280;59767;51.344;12.362;2022-12-18T02:06:41;157165.50;;;-5.58
71897;BMP280;59767;51.344;12.362;2022-12-18T02:09:50;157142.19;;;-5.67
71897;BMP280;59767;51.344;12.362;2022-12-18T02:13:12;157168.06;;;-5.57
71897;BMP280;59767;51.344;12.362;2022-12-18T02:16:24;157182.38;;;-5.51
71897;BMP280;59767;51.344;12.362;2022-12-18T02:26:27;157171.94;;;-5.55
71897;BMP280;59767;51.344;12.362;2022-12-18T02:29:50;157164.19;;;-5.58
71897;BMP280;59767;51.344;12.362;2022-12-18T02:33:02;157169.38;;;-5.56
71897;BMP280;59767;51.344;12.362;2022-12-18T02:36:09;157161.59;;;-5.59
71897;BMP280;59767;51.344;12.362;2022-12-18T02:39:16;157168.06;;;-5.57
71897;BMP280;59767;51.344;12.362;2022-12-18T02:42:21;157159.03;;;-5.60
71897;BMP280;59767;51.344;12.362;2022-12-18T02:45:26;157151.22;;;-5.63
71897;BMP280;59767;51.344;12.362;2022-12-18T02:48:35;157165.50;;;-5.58
71897;BMP280;59767;51.344;12.362;2022-12-18T02:51:50;157183.69;;;-5.51
71897;BMP280;59767;51.344;12.362;2022-12-18T02:55:23;157156.41;;;-5.61
71897;BMP280;59767;51.344;12.362;2022-12-18T03:05:00;157139.53;;;-5.68
71897;BMP280;59767;51.344;12.362;2022-12-18T03:08:18;157152.53;;;-5.63
71897;BMP280;59767;51.344;12.362;2022-12-18T03:11:23;157140.88;;;-5.67
71897;BMP280;59767;51.344;12.362;2022-12-18T03:14:56;157127.88;;;-5.72
71897;BMP280;59767;51.344;12.362;2022-12-18T03:18:05;157136.97;;;-5.69
71897;BMP280;59767;51.344;12.362;2022-12-18T03:21:13;157121.44;;;-5.75
71897;BMP280;59767;51.344;12.362;2022-12-18T03:24:19;157124.00;;;-5.74
71897;BMP280;59767;51.344;12.362;2022-12-18T03:27:26;157113.66;;;-5.78
71897;BMP280;59767;51.344;12.362;2022-12-18T03:30:33;157147.34;;;-5.65
71897;BMP280;59767;51.344;12.362;2022-12-18T03:33:42;157135.66;;;-5.69
71897;BMP280;59767;51.344;12.362;2022-12-18T03:36:48;157125.31;;;-5.73
71897;BMP280;59767;51.344;12.362;2022-12-18T03:39:52;157144.78;;;-5.66
71897;BMP280;59767;51.344;12.362;2022-12-18T03:43:03;157146.06;;;-5.65
71897;BMP280;59767;51.344;12.362;2022-12-18T03:50:16;157157.72;;;-5.61
71897;BMP280;59767;51.344;12.362;2022-12-18T03:53:40;157138.25;;;-5.68
71897;BMP280;59767;51.344;12.362;2022-12-18T03:56:51;157092.91;;;-5.86
71897;BMP280;59767;51.344;12.362;2022-12-18T04:00:04;157091.59;;;-5.86
71897;BMP280;59767;51.344;12.362;2022-12-18T04:03:09;157082.53;;;-5.90
71897;BMP280;59767;51.344;12.362;2022-12-18T04:06:15;157056.56;;;-6.00
71897;BMP280;59767;51.344;12.362;2022-12-18T04:09:20;157039.78;;;-6.06
71897;BMP280;59767;51.344;12.362;2022-12-18T04:12:25;157061.75;;;-5.98
71897;BMP280;59767;51.344;12.362;2022-12-18T04:15:32;157051.41;;;-6.02
71897;BMP280;59767;51.344;12.362;2022-12-18T04:18:37;157039.78;;;-6.06
71897;BMP280;59767;51.344;12.362;2022-12-18T04:21:41;157046.22;;;-6.04
71897;BMP280;59767;51.344;12.362;2022-12-18T04:24:45;157031.97;;;-6.09
71897;BMP280;59767;51.344;12.362;2022-12-18T04:27:49;157026.78;;;-6.11
71897;BMP280;59767;51.344;12.362;2022-12-18T04:30:53;157033.28;;;-6.09
71897;BMP280;59767;51.344;12.362;2022-12-18T04:33:57;157048.81;;;-6.03
71897;BMP280;59767;51.344;12.362;2022-12-18T04:37:01;157059.19;;;-5.99
71897;BMP280;59767;51.344;12.362;2022-12-18T04:40:05;157030.72;;;-6.10
71897;BMP280;59767;51.344;12.362;2022-12-18T04:43:09;157039.78;;;-6.06
71897;BMP280;59767;51.344;12.362;2022-12-18T04:46:14;157009.94;;;-6.18
71897;BMP280;59767;51.344;12.362;2022-12-18T04:49:18;157025.47;;;-6.12
71897;BMP280;59767;51.344;12.362;2022-12-18T04:52:22;157020.28;;;-6.14
71897;BMP280;59767;51.344;12.362;2022-12-18T04:55:29;157011.19;;;-6.18
71897;BMP280;59767;51.344;12.362;2022-12-18T04:58:34;157007.31;;;-6.19
71897;BMP280;59767;51.344;12.362;2022-12-18T05:01:39;157003.44;;;-6.21
71897;BMP280;59767;51.344;12.362;2022-12-18T05:04:43;157070.88;;;-5.94
71897;BMP280;59767;51.344;12.362;2022-12-18T05:07:46;157057.88;;;-5.99
71897;BMP280;59767;51.344;12.362;2022-12-18T05:11:02;157059.19;;;-5.99
71897;BMP280;59767;51.344;12.362;2022-12-18T05:14:08;157030.72;;;-6.10
71897;BMP280;59767;51.344;12.362;2022-12-18T05:17:12;157021.59;;;-6.13
71897;BMP280;59767;51.344;12.362;2022-12-18T05:20:17;157044.91;;;-6.04
71897;BMP280;59767;51.344;12.362;2022-12-18T05:23:23;157041.03;;;-6.06
71897;BMP280;59767;51.344;12.362;2022-12-18T05:26:27;157042.34;;;-6.05
71897;BMP280;59767;51.344;12.362;2022-12-18T05:29:31;157048.81;;;-6.03
71897;BMP280;59767;51.344;12.362;2022-12-18T05:32:36;157016.41;;;-6.15
71897;BMP280;59767;51.344;12.362;2022-12-18T05:35:40;157051.41;;;-6.02
71897;BMP280;59767;51.344;12.362;2022-12-18T05:38:43;157089.03;;;-5.87
71897;BMP280;59767;51.344;12.362;2022-12-18T05:41:47;157057.88;;;-5.99
71897;BMP280;59767;51.344;12.362;2022-12-18T05:44:51;157059.19;;;-5.99
71897;BMP280;59767;51.344;12.362;2022-12-18T05:47:55;157037.16;;;-6.07
71897;BMP280;59767;51.344;12.362;2022-12-18T05:51:05;157026.78;;;-6.11
71897;BMP280;59767;51.344;12.362;2022-12-18T05:54:10;157043.66;;;-6.05
71897;BMP280;59767;51.344;12.362;2022-12-18T05:57:14;157041.03;;;-6.06
71897;BMP280;59767;51.344;12.362;2022-12-18T06:00:19;157054.00;;;-6.01
71897;BMP280;59767;51.344;12.362;2022-12-18T06:03:23;157038.47;;;-6.07
71897;BMP280;59767;51.344;12.362;2022-12-18T06:06:35;157041.03;;;-6.06
71897;BMP280;59767;51.344;12.362;2022-12-18T06:09:39;157020.28;;;-6.14
71897;BMP280;59767;51.344;12.362;2022-12-18T06:12:42;157012.50;;;-6.17
71897;BMP280;59767;51.344;12.362;2022-12-18T06:15:46;157061.75;;;-5.98
71897;BMP280;59767;51.344;12.362;2022-12-18T06:18:51;157064.38;;;-5.97
71897;BMP280;59767;51.344;12.362;2022-12-18T06:21:55;157057.88;;;-5.99
71897;BMP280;59767;51.344;12.362;2022-12-18T06:25:02;157072.19;;;-5.94
71897;BMP280;59767;51.344;12.362;2022-12-18T06:28:05;157092.91;;;-5.86
71897;BMP280;59767;51.344;12.362;2022-12-18T06:31:10;157078.63;;;-5.91
71897;BMP280;59767;51.344;12.362;2022-12-18T06:34:14;157077.31;;;-5.92
71897;BMP280;59767;51.344;12.362;2022-12-18T06:37:19;157006.06;;;-6.19
71897;BMP280;59767;51.344;12.362;2022-12-18T06:40:23;156993.06;;;-6.25
71897;BMP280;59767;51.344;12.362;2022-12-18T06:43:28;157016.41;;;-6.15
71897;BMP280;59767;51.344;12.362;2022-12-18T06:46:31;156986.56;;;-6.27
71897;BMP280;59767;51.344;12.362;2022-12-18T06:49:36;156995.69;;;-6.24
71897;BMP280;59767;51.344;12.362;2022-12-18T06:52:40;156986.56;;;-6.27
71897;BMP280;59767;51.344;12.362;2022-12-18T06:55:44;156999.56;;;-6.22
71897;BMP280;59767;51.344;12.362;2022-12-18T06:58:49;156981.44;;;-6.29
71897;BMP280;59767;51.344;12.362;2022-12-18T07:01:53;157016.41;;;-6.15
71897;BMP280;59767;51.344;12.362;2022-12-18T07:04:58;157025.47;;;-6.12
71897;BMP280;59767;51.344;12.362;2022-12-18T07:08:02;157016.41;;;-6.15
71897;BMP280;59767;51.344;12.362;2022-12-18T07:11:06;157009.94;;;-6.18
71897;BMP280;59767;51.344;12.362;2022-12-18T07:14:10;157026.78;;;-6.11
71897;BMP280;59767;51.344;12.362;2022-12-18T07:17:14;157055.31;;;-6.00
71897;BMP280;59767;51.344;12.362;2022-12-18T07:20:18;156960.72;;;-6.37
71897;BMP280;59767;51.344;12.362;2022-12-18T07:23:22;156965.91;;;-6.35
71897;BMP280;59767;51.344;12.362;2022-12-18T07:26:26;156971.03;;;-6.33
71897;BMP280;59767;51.344;12.362;2022-12-18T07:29:30;157041.03;;;-6.06
71897;BMP280;59767;51.344;12.362;2022-12-18T07:32:35;157015.13;;;-6.16
71897;BMP280;59767;51.344;12.362;2022-12-18T07:35:38;157042.34;;;-6.05
71897;BMP280;59767;51.344;12.362;2022-12-18T07:38:43;157073.44;;;-5.93
71897;BMP280;59767;51.344;12.362;2022-12-18T07:41:49;157051.41;;;-6.02
71897;BMP280;59767;51.344;12.362;2022-12-18T07:45:13;157015.13;;;-6.16
71897;BMP280;59767;51.344;12.362;2022-12-18T07:48:17;157011.19;;;-6.18
71897;BMP280;59767;51.344;12.362;2022-12-18T07:51:21;157042.34;;;-6.05
71897;BMP280;59767;51.344;12.362;2022-12-18T07:54:25;157087.72;;;-5.88
71897;BMP280;59767;51.344;12.362;2022-12-18T07:57:29;157043.66;;;-6.05
71897;BMP280;59767;51.344;12.362;2022-12-18T08:00:54;157076.06;;;-5.92
71897;BMP280;59767;51.344;12.362;2022-12-18T08:04:05;157077.31;;;-5.92
71897;BMP280;59767;51.344;12.362;2022-12-18T08:07:09;157054.00;;;-6.01
71897;BMP280;59767;51.344;12.362;2022-12-18T08:10:13;157072.19;;;-5.94
71897;BMP280;59767;51.344;12.362;2022-12-18T08:13:18;157051.41;;;-6.02
71897;BMP280;59767;51.344;12.362;2022-12-18T08:16:22;157056.56;;;-6.00
71897;BMP280;59767;51.344;12.362;2022-12-18T08:19:26;157054.00;;;-6.01
71897;BMP280;59767;51.344;12.362;2022-12-18T08:22:33;157092.91;;;-5.86
71897;BMP280;59767;51.344;12.362;2022-12-18T08:25:37;157085.09;;;-5.89
71897;BMP280;59767;51.344;12.362;2022-12-18T08:28:42;157074.75;;;-5.93
71897;BMP280;59767;51.344;12.362;2022-12-18T08:31:45;157079.94;;;-5.91
71897;BMP280;59767;51.344;12.362;2022-12-18T08:34:49;157098.03;;;-5.84
71897;BMP280;59767;51.344;12.362;2022-12-18T08:37:53;157127.88;;;-5.72
71897;BMP280;59767;51.344;12.362;2022-12-18T08:41:05;157139.53;;;-5.68
71897;BMP280;59767;51.344;12.362;2022-12-18T08:44:10;157125.31;;;-5.73
71897;BMP280;59767;51.344;12.362;2022-12-18T08:47:33;157217.31;;;-5.38
71897;BMP280;59767;51.344;12.362;2022-12-18T08:50:37;157297.75;;;-5.06
71897;BMP280;59767;51.344;12.362;2022-12-18T08:53:41;157353.56;;;-4.85
71897;BMP280;59767;51.344;12.362;2022-12-18T08:56:46;157411.91;;;-4.62
71897;BMP280;59767;51.344;12.362;2022-12-18T08:59:50;157496.31;;;-4.30
71897;BMP280;59767;51.344;12.362;2022-12-18T09:02:54;157496.31;;;-4.30
71897;BMP280;59767;51.344;12.362;2022-12-18T09:05:59;157536.47;;;-4.14
71897;BMP280;59767;51.344;12.362;2022-12-18T09:09:04;157492.38;;;-4.31
71897;BMP280;59767;51.344;12.362;2022-12-18T09:12:08;157520.94;;;-4.20
71897;BMP280;59767;51.344;12.362;2022-12-18T09:15:12;157485.84;;;-4.34
71897;BMP280;59767;51.344;12.362;2022-12-18T09:18:18;157549.50;;;-4.09
71897;BMP280;59767;51.344;12.362;2022-12-18T09:21:22;157550.75;;;-4.09
71897;BMP280;59767;51.344;12.362;2022-12-18T09:24:27;157572.81;;;-4.00
71897;BMP280;59767;51.344;12.362;2022-12-18T09:27:31;157597.50;;;-3.90
71897;BMP280;59767;51.344;12.362;2022-12-18T09:30:37;157593.56;;;-3.92
71897;BMP280;59767;51.344;12.362;2022-12-18T09:33:42;157571.50;;;-4.01
71897;BMP280;59767;51.344;12.362;2022-12-18T09:36:46;157514.41;;;-4.23
71897;BMP280;59767;51.344;12.362;2022-12-18T09:39:50;157498.88;;;-4.29
71897;BMP280;59767;51.344;12.362;2022-12-18T09:43:02;157528.69;;;-4.17
71897;BMP280;59767;51.344;12.362;2022-12-18T09:46:11;157524.81;;;-4.19
71897;BMP280;59767;51.344;12.362;2022-12-18T09:49:23;157535.16;;;-4.15
71897;BMP280;59767;51.344;12.362;2022-12-18T09:52:40;157510.53;;;-4.24
71897;BMP280;59767;51.344;12.362;2022-12-18T09:55:46;157527.41;;;-4.18
71897;BMP280;59767;51.344;12.362;2022-12-18T09:58:58;157546.88;;;-4.10
71897;BMP280;59767;51.344;12.362;2022-12-18T10:02:15;157567.63;;;-4.02
71897;BMP280;59767;51.344;12.362;2022-12-18T10:05:29;157611.75;;;-3.85
71897;BMP280;59767;51.344;12.362;2022-12-18T10:12:31;157600.09;;;-3.89
71897;BMP280;59767;51.344;12.362;2022-12-18T10:15:41;157609.19;;;-3.86
71897;BMP280;59767;51.344;12.362;2022-12-18T10:25:48;157693.56;;;-3.53
71897;BMP280;59767;51.344;12.362;2022-12-18T10:28:56;157700.03;;;-3.51
71897;BMP280;59767;51.344;12.362;2022-12-18T10:32:14;157676.69;;;-3.60
71897;BMP280;59767;51.344;12.362;2022-12-18T10:35:26;157654.63;;;-3.68
71897;BMP280;59767;51.344;12.362;2022-12-18T10:38:31;157703.91;;;-3.49
71897;BMP280;59767;51.344;12.362;2022-12-18T10:41:36;157653.31;;;-3.69
71897;BMP280;59767;51.344;12.362;2022-12-18T10:44:40;157690.94;;;-3.54
71897;BMP280;59767;51.344;12.362;2022-12-18T10:47:49;157702.59;;;-3.50
71897;BMP280;59767;51.344;12.362;2022-12-18T10:50:53;157668.91;;;-3.63
71897;BMP280;59767;51.344;12.362;2022-12-18T10:54:22;157736.38;;;-3.37
71897;BMP280;59767;51.344;12.362;2022-12-18T10:57:38;157770.13;;;-3.24
71897;BMP280;59767;51.344;12.362;2022-12-18T11:00:42;157783.16;;;-3.19
71897;BMP280;59767;51.344;12.362;2022-12-18T11:06:59;157755.84;;;-3.29
71897;BMP280;59767;51.344;12.362;2022-12-18T11:10:04;157779.22;;;-3.20
71897;BMP280;59767;51.344;12.362;2022-12-18T11:13:21;157719.53;;;-3.43
71897;BMP280;59767;51.344;12.362;2022-12-18T11:16:26;157755.84;;;-3.29
71897;BMP280;59767;51.344;12.362;2022-12-18T11:19:34;157793.53;;;-3.15
71897;BMP280;59767;51.344;12.362;2022-12-18T11:22:39;157754.56;;;-3.30
71897;BMP280;59767;51.344;12.362;2022-12-18T11:25:52;157718.25;;;-3.44
71897;BMP280;59767;51.344;12.362;2022-12-18T11:29:09;157713.00;;;-3.46
71897;BMP280;59767;51.344;12.362;2022-12-18T11:32:38;157737.69;;;-3.36
71897;BMP280;59767;51.344;12.362;2022-12-18T11:35:48;157713.00;;;-3.46
71897;BMP280;59767;51.344;12.362;2022-12-18T11:38:55;157726.03;;;-3.41
71897;BMP280;59767;51.344;12.362;2022-12-18T11:42:12;157710.38;;;-3.47
71897;BMP280;59767;51.344;12.362;2022-12-18T11:48:43;157736.38;;;-3.37
71897;BMP280;59767;51.344;12.362;2022-12-18T11:51:54;157723.41;;;-3.42
71897;BMP280;59767;51.344;12.362;2022-12-18T11:55:01;157740.28;;;-3.35
71897;BMP280;59767;51.344;12.362;2022-12-18T12:05:01;157842.84;;;-2.96
71897;BMP280;59767;51.344;12.362;2022-12-18T12:15:25;157876.63;;;-2.83
71897;BMP280;59767;51.344;12.362;2022-12-18T12:22:41;157905.19;;;-2.72
71897;BMP280;59767;51.344;12.362;2022-12-18T12:25:53;157928.53;;;-2.62
71897;BMP280;59767;51.344;12.362;2022-12-18T12:32:50;157941.59;;;-2.57
71897;BMP280;59767;51.344;12.362;2022-12-18T12:36:08;157944.22;;;-2.56
71897;BMP280;59767;51.344;12.362;2022-12-18T12:39:38;157889.63;;;-2.78
71897;BMP280;59767;51.344;12.362;2022-12-18T12:42:47;157884.41;;;-2.80
71897;BMP280;59767;51.344;12.362;2022-12-18T12:46:16;157872.75;;;-2.84
71897;BMP280;59767;51.344;12.362;2022-12-18T12:49:26;157881.84;;;-2.81
71897;BMP280;59767;51.344;12.362;2022-12-18T12:52:40;157880.53;;;-2.81
71897;BMP280;59767;51.344;12.362;2022-12-18T12:55:46;157881.84;;;-2.81
71897;BMP280;59767;51.344;12.362;2022-12-18T13:03:27;157903.88;;;-2.72
71897;BMP280;59767;51.344;12.362;2022-12-18T13:06:00;157875.31;;;-2.83
71897;BMP280;59767;51.344;12.362;2022-12-18T13:09:07;157876.63;;;-2.83
71897;BMP280;59767;51.344;12.362;2022-12-18T13:12:15;157871.44;;;-2.85
71897;BMP280;59767;51.344;12.362;2022-12-18T13:18:49;157906.50;;;-2.71
71897;BMP280;59767;51.344;12.362;2022-12-18T13:21:55;157881.84;;;-2.81
71897;BMP280;59767;51.344;12.362;2022-12-18T13:25:00;157833.75;;;-2.99
71897;BMP280;59767;51.344;12.362;2022-12-18T13:28:12;157836.38;;;-2.98
71897;BMP280;59767;51.344;12.362;2022-12-18T13:34:33;157801.31;;;-3.12
71897;BMP280;59767;51.344;12.362;2022-12-18T13:37:43;157832.47;;;-3.00
71897;BMP280;59767;51.344;12.362;2022-12-18T13:43:55;157809.09;;;-3.09
71897;BMP280;59767;51.344;12.362;2022-12-18T13:47:04;157832.47;;;-3.00
71897;BMP280;59767;51.344;12.362;2022-12-18T13:50:12;157774.03;;;-3.22
71897;BMP280;59767;51.344;12.362;2022-12-18T13:53:35;157803.94;;;-3.11
71897;BMP280;59767;51.344;12.362;2022-12-18T13:56:44;157832.47;;;-3.00
71897;BMP280;59767;51.344;12.362;2022-12-18T13:59:49;157806.50;;;-3.10
71897;BMP280;59767;51.344;12.362;2022-12-18T14:02:55;157813.03;;;-3.07
71897;BMP280;59767;51.344;12.362;2022-12-18T14:06:03;157827.28;;;-3.02
71897;BMP280;59767;51.344;12.362;2022-12-18T14:09:13;157803.94;;;-3.11
71897;BMP280;59767;51.344;12.362;2022-12-18T14:12:26;157801.31;;;-3.12
71897;BMP280;59767;51.344;12.362;2022-12-18T14:15:51;157818.19;;;-3.05
71897;BMP280;59767;51.344;12.362;2022-12-18T14:18:56;157781.84;;;-3.19
71897;BMP280;59767;51.344;12.362;2022-12-18T14:22:24;157780.50;;;-3.20
71897;BMP280;59767;51.344;12.362;2022-12-18T14:25:33;157750.69;;;-3.31
71897;BMP280;59767;51.344;12.362;2022-12-18T14:28:43;157697.44;;;-3.52
71897;BMP280;59767;51.344;12.362;2022-12-18T14:32:15;157718.25;;;-3.44
71897;BMP280;59767;51.344;12.362;2022-12-18T14:35:22;157710.38;;;-3.47
71897;BMP280;59767;51.344;12.362;2022-12-18T14:38:28;157709.13;;;-3.47
71897;BMP280;59767;51.344;12.362;2022-12-18T14:41:32;157696.13;;;-3.52
71897;BMP280;59767;51.344;12.362;2022-12-18T14:44:36;157697.44;;;-3.52
71897;BMP280;59767;51.344;12.362;2022-12-18T14:48:00;157693.56;;;-3.53
71897;BMP280;59767;51.344;12.362;2022-12-18T14:51:15;157683.16;;;-3.57
71897;BMP280;59767;51.344;12.362;2022-12-18T14:54:22;157681.84;;;-3.58
71897;BMP280;59767;51.344;12.362;2022-12-18T14:57:35;157661.09;;;-3.66
71897;BMP280;59767;51.344;12.362;2022-12-18T15:00:42;157657.19;;;-3.67
71897;BMP280;59767;51.344;12.362;2022-12-18T15:03:46;157679.25;;;-3.59
71897;BMP280;59767;51.344;12.362;2022-12-18T15:07:03;157640.28;;;-3.74
71897;BMP280;59767;51.344;12.362;2022-12-18T15:13:21;157636.38;;;-3.75
71897;BMP280;59767;51.344;12.362;2022-12-18T15:16:26;157635.13;;;-3.76
71897;BMP280;59767;51.344;12.362;2022-12-18T15:19:41;157632.50;;;-3.77
71897;BMP280;59767;51.344;12.362;2022-12-18T15:22:47;157632.50;;;-3.77
71897;BMP280;59767;51.344;12.362;2022-12-18T15:25:58;157639.03;;;-3.74
71897;BMP280;59767;51.344;12.362;2022-12-18T15:29:03;157642.91;;;-3.73
71897;BMP280;59767;51.344;12.362;2022-12-18T15:32:18;157659.81;;;-3.66
71897;BMP280;59767;51.344;12.362;2022-12-18T15:35:24;157636.38;;;-3.75
71897;BMP280;59767;51.344;12.362;2022-12-18T15:38:28;157659.81;;;-3.66
71897;BMP280;59767;51.344;12.362;2022-12-18T15:41:34;157652.00;;;-3.69
71897;BMP280;59767;51.344;12.362;2022-12-18T15:44:39;157674.06;;;-3.61
71897;BMP280;59767;51.344;12.362;2022-12-18T15:47:43;157645.47;;;-3.72
71897;BMP280;59767;51.344;12.362;2022-12-18T15:50:49;157659.81;;;-3.66
71897;BMP280;59767;51.344;12.362;2022-12-18T15:53:55;157662.41;;;-3.65
71897;BMP280;59767;51.344;12.362;2022-12-18T15:57:00;157658.50;;;-3.67
71897;BMP280;59767;51.344;12.362;2022-12-18T16:00:23;157654.63;;;-3.68
71897;BMP280;59767;51.344;12.362;2022-12-18T16:03:27;157659.81;;;-3.66
71897;BMP280;59767;51.344;12.362;2022-12-18T16:06:32;157639.03;;;-3.74
71897;BMP280;59767;51.344;12.362;2022-12-18T16:09:56;157640.28;;;-3.74
71897;BMP280;59767;51.344;12.362;2022-12-18T16:13:02;157645.47;;;-3.72
71897;BMP280;59767;51.344;12.362;2022-12-18T16:16:08;157650.69;;;-3.70
71897;BMP280;59767;51.344;12.362;2022-12-18T16:19:12;157639.03;;;-3.74
71897;BMP280;59767;51.344;12.362;2022-12-18T16:22:22;157622.16;;;-3.81
71897;BMP280;59767;51.344;12.362;2022-12-18T16:25:27;157640.28;;;-3.74
71897;BMP280;59767;51.344;12.362;2022-12-18T16:28:32;157611.75;;;-3.85
71897;BMP280;59767;51.344;12.362;2022-12-18T16:31:36;157611.75;;;-3.85
71897;BMP280;59767;51.344;12.362;2022-12-18T16:34:41;157594.88;;;-3.91
71897;BMP280;59767;51.344;12.362;2022-12-18T16:37:46;157652.00;;;-3.69
71897;BMP280;59767;51.344;12.362;2022-12-18T16:40:50;157687.03;;;-3.56
71897;BMP280;59767;51.344;12.362;2022-12-18T16:44:26;157707.81;;;-3.48
71897;BMP280;59767;51.344;12.362;2022-12-18T16:47:30;157679.25;;;-3.59
71897;BMP280;59767;51.344;12.362;2022-12-18T16:50:35;157655.94;;;-3.68
71897;BMP280;59767;51.344;12.362;2022-12-18T16:53:38;157633.81;;;-3.76
71897;BMP280;59767;51.344;12.362;2022-12-18T16:56:43;157674.06;;;-3.61
71897;BMP280;59767;51.344;12.362;2022-12-18T16:59:48;157661.09;;;-3.66
71897;BMP280;59767;51.344;12.362;2022-12-18T17:02:53;157689.66;;;-3.55
71897;BMP280;59767;51.344;12.362;2022-12-18T17:06:04;157689.66;;;-3.55
71897;BMP280;59767;51.344;12.362;2022-12-18T17:09:13;157705.22;;;-3.49
71897;BMP280;59767;51.344;12.362;2022-12-18T17:12:19;157722.16;;;-3.42
71897;BMP280;59767;51.344;12.362;2022-12-18T17:15:23;157723.41;;;-3.42
71897;BMP280;59767;51.344;12.362;2022-12-18T17:18:27;157674.06;;;-3.61
71897;BMP280;59767;51.344;12.362;2022-12-18T17:21:32;157720.84;;;-3.43
71897;BMP280;59767;51.344;12.362;2022-12-18T17:24:36;157740.28;;;-3.35
71897;BMP280;59767;51.344;12.362;2022-12-18T17:27:40;157732.50;;;-3.38
71897;BMP280;59767;51.344;12.362;2022-12-18T17:30:44;157709.13;;;-3.47
71897;BMP280;59767;51.344;12.362;2022-12-18T17:33:50;157737.69;;;-3.36
71897;BMP280;59767;51.344;12.362;2022-12-18T17:36:54;157745.47;;;-3.33
71897;BMP280;59767;51.344;12.362;2022-12-18T17:39:59;157741.59;;;-3.35
71897;BMP280;59767;51.344;12.362;2022-12-18T17:43:03;157751.94;;;-3.31
71897;BMP280;59767;51.344;12.362;2022-12-18T17:46:07;157772.72;;;-3.23
71897;BMP280;59767;51.344;12.362;2022-12-18T17:49:14;157787.06;;;-3.17
71897;BMP280;59767;51.344;12.362;2022-12-18T17:52:18;157741.59;;;-3.35
71897;BMP280;59767;51.344;12.362;2022-12-18T17:55:23;157754.56;;;-3.30
71897;BMP280;59767;51.344;12.362;2022-12-18T17:58:27;157780.50;;;-3.20
71897;BMP280;59767;51.344;12.362;2022-12-18T18:01:31;157761.03;;;-3.27
71897;BMP280;59767;51.344;12.362;2022-12-18T18:04:36;157770.13;;;-3.24
71897;BMP280;59767;51.344;12.362;2022-12-18T18:07:40;157789.63;;;-3.16
71897;BMP280;59767;51.344;12.362;2022-12-18T18:10:45;157780.50;;;-3.20
71897;BMP280;59767;51.344;12.362;2022-12-18T18:13:51;157777.91;;;-3.21
71897;BMP280;59767;51.344;12.362;2022-12-18T18:17:04;157789.63;;;-3.16
71897;BMP280;59767;51.344;12.362;2022-12-18T18:20:09;157792.25;;;-3.15
71897;BMP280;59767;51.344;12.362;2022-12-18T18:23:13;157805.19;;;-3.10
71897;BMP280;59767;51.344;12.362;2022-12-18T18:26:17;157809.09;;;-3.09
71897;BMP280;59767;51.344;12.362;2022-12-18T18:29:23;157818.19;;;-3.05
71897;BMP280;59767;51.344;12.362;2022-12-18T18:32:30;157819.50;;;-3.05
71897;BMP280;59767;51.344;12.362;2022-12-18T18:35:41;157790.94;;;-3.16
71897;BMP280;59767;51.344;12.362;2022-12-18T18:38:58;157841.56;;;-2.96
71897;BMP280;59767;51.344;12.362;2022-12-18T18:42:03;157867.53;;;-2.86
71897;BMP280;59767;51.344;12.362;2022-12-18T18:45:08;157861.06;;;-2.89